sensor_id;sensor_type;location;lat;lon;timestamp;P1;durP1;ratioP1;P2;durP2;ratioP2
18917;SDS011;9591;52.742;13.650;2023-05-14T00:02:21;20.97;;;9.67;;
18917;SDS011;9591;52.742;13.650;2023-05-14T00:05:08;15.30;;;8.70;;
18917;SDS011;9591;52.742;13.650;2023-05-14T00:07:55;21.97;;;9.40;;
18917;SDS011;9591;52.742;13.650;2023-05-14T00:10:42;18.00;;;8.97;;
18917;SDS011;9591;52.742;13.650;2023-05-14T00:13:29;21.87;;;10.27;;
18917;SDS011;9591;52.742;13.650;2023-05-14T00:16:17;17.90;;;9.87;;
18917;SDS011;9591;52.742;13.650;2023-05-14T00:19:03;24.80;;;9.93;;
18917;SDS011;9591;52.742;13.650;2023-05-14T00:21:50;17.77;;;10.30;;
18917;SDS011;9591;52.742;13.650;2023-05-14T00:24:37;17.50;;;10.50;;
18917;SDS011;9591;52.742;13.650;2023-05-14T00:27:24;20.97;;;10.63;;
18917;SDS011;9591;52.742;13.650;2023-05-14T00:30:11;19.27;;;10.40;;
18917;SDS011;9591;52.742;13.650;2023-05-14T00:33:02;16.77;;;9.83;;
18917;SDS011;9591;52.742;13.650;2023-05-14T00:35:49;19.33;;;10.77;;
18917;SDS011;9591;52.742;13.650;2023-05-14T00:38:41;21.57;;;10.53;;
18917;SDS011;9591;52.742;13.650;2023-05-14T00:41:28;18.07;;;9.73;;
18917;SDS011;9591;52.742;13.650;2023-05-14T00:44:15;20.80;;;10.70;;
18917;SDS011;9591;52.742;13.650;2023-05-14T00:47:02;16.23;;;9.60;;
18917;SDS011;9591;52.742;13.650;2023-05-14T00:49:53;18.33;;;9.73;;
18917;SDS011;9591;52.742;13.650;2023-05-14T00:52:40;20.40;;;9.67;;
18917;SDS011;9591;52.742;13.650;2023-05-14T00:55:28;16.40;;;8.67;;
18917;SDS011;9591;52.742;13.650;2023-05-14T00:58:16;13.83;;;9.53;;
18917;SDS011;9591;52.742;13.650;2023-05-14T01:01:03;22.33;;;10.17;;
18917;SDS011;9591;52.742;13.650;2023-05-14T01:03:50;14.43;;;8.53;;
18917;SDS011;9591;52.742;13.650;2023-05-14T01:06:41;14.63;;;9.03;;
18917;SDS011;9591;52.742;13.650;2023-05-14T01:09:40;15.67;;;8.60;;
18917;SDS011;9591;52.742;13.650;2023-05-14T01:12:32;16.40;;;9.30;;
18917;SDS011;9591;52.742;13.650;2023-05-14T01:15:25;16.20;;;9.50;;
18917;SDS011;9591;52.742;13.650;2023-05-14T01:18:17;14.10;;;9.67;;
18917;SDS011;9591;52.742;13.650;2023-05-14T01:21:05;12.37;;;8.93;;
18917;SDS011;9591;52.742;13.650;2023-05-14T01:24:07;15.67;;;9.70;;
18917;SDS011;9591;52.742;13.650;2023-05-14T01:26:53;15.53;;;9.63;;
18917;SDS011;9591;52.742;13.650;2023-05-14T01:29:47;15.27;;;10.03;;
18917;SDS011;9591;52.742;13.650;2023-05-14T01:32:38;14.30;;;9.60;;
18917;SDS011;9591;52.742;13.650;2023-05-14T01:35:26;16.03;;;9.80;;
18917;SDS011;9591;52.742;13.650;2023-05-14T01:38:15;13.73;;;9.17;;
18917;SDS011;9591;52.742;13.650;2023-05-14T01:41:05;15.60;;;9.73;;
18917;SDS011;9591;52.742;13.650;2023-05-14T01:43:53;13.97;;;9.40;;
18917;SDS011;9591;52.742;13.650;2023-05-14T01:46:39;18.83;;;9.93;;
18917;SDS011;9591;52.742;13.650;2023-05-14T01:49:26;16.47;;;9.87;;
18917;SDS011;9591;52.742;13.650;2023-05-14T01:52:13;16.03;;;9.23;;
18917;SDS011;9591;52.742;13.650;2023-05-14T01:55:02;13.50;;;9.57;;
18917;SDS011;9591;52.742;13.650;2023-05-14T01:57:50;16.97;;;9.33;;
18917;SDS011;9591;52.742;13.650;2023-05-14T02:00:38;18.20;;;9.87;;
18917;SDS011;9591;52.742;13.650;2023-05-14T02:03:25;17.73;;;9.83;;
18917;SDS011;9591;52.742;13.650;2023-05-14T02:06:11;20.50;;;9.97;;
18917;SDS011;9591;52.742;13.650;2023-05-14T02:08:58;14.13;;;9.63;;
18917;SDS011;9591;52.742;13.650;2023-05-14T02:11:45;15.53;;;9.87;;
18917;SDS011;9591;52.742;13.650;2023-05-14T02:14:33;14.17;;;9.00;;
18917;SDS011;9591;52.742;13.650;2023-05-14T02:17:20;16.37;;;10.00;;
18917;SDS011;9591;52.742;13.650;2023-05-14T02:20:07;15.87;;;9.43;;
18917;SDS011;9591;52.742;13.650;2023-05-14T02:22:55;14.00;;;9.37;;
18917;SDS011;9591;52.742;13.650;2023-05-14T02:25:42;14.10;;;9.03;;
18917;SDS011;9591;52.742;13.650;2023-05-14T02:28:29;14.53;;;9.60;;
18917;SDS011;9591;52.742;13.650;2023-05-14T02:31:18;15.73;;;9.93;;
18917;SDS011;9591;52.742;13.650;2023-05-14T02:34:05;15.30;;;9.87;;
18917;SDS011;9591;52.742;13.650;2023-05-14T02:36:51;15.77;;;9.40;;
18917;SDS011;9591;52.742;13.650;2023-05-14T02:39:38;13.50;;;9.10;;
18917;SDS011;9591;52.742;13.650;2023-05-14T02:42:25;16.73;;;9.83;;
18917;SDS011;9591;52.742;13.650;2023-05-14T02:45:12;12.30;;;9.60;;
18917;SDS011;9591;52.742;13.650;2023-05-14T02:48:01;14.37;;;8.87;;
18917;SDS011;9591;52.742;13.650;2023-05-14T02:50:48;21.63;;;9.07;;
18917;SDS011;9591;52.742;13.650;2023-05-14T02:53:35;12.70;;;8.37;;
18917;SDS011;9591;52.742;13.650;2023-05-14T02:56:22;16.57;;;9.43;;
18917;SDS011;9591;52.742;13.650;2023-05-14T02:59:09;12.97;;;8.57;;
18917;SDS011;9591;52.742;13.650;2023-05-14T03:01:56;14.87;;;8.70;;
18917;SDS011;9591;52.742;13.650;2023-05-14T03:04:45;13.17;;;8.70;;
18917;SDS011;9591;52.742;13.650;2023-05-14T03:07:32;11.17;;;7.70;;
18917;SDS011;9591;52.742;13.650;2023-05-14T03:10:19;17.40;;;8.30;;
18917;SDS011;9591;52.742;13.650;2023-05-14T03:13:06;16.60;;;8.77;;
18917;SDS011;9591;52.742;13.650;2023-05-14T03:15:53;15.90;;;9.00;;
18917;SDS011;9591;52.742;13.650;2023-05-14T03:18:41;17.47;;;8.90;;
18917;SDS011;9591;52.742;13.650;2023-05-14T03:21:29;14.00;;;9.07;;
18917;SDS011;9591;52.742;13.650;2023-05-14T03:24:16;14.47;;;9.47;;
18917;SDS011;9591;52.742;13.650;2023-05-14T03:27:03;16.43;;;9.00;;
18917;SDS011;9591;52.742;13.650;2023-05-14T03:29:51;18.80;;;9.57;;
18917;SDS011;9591;52.742;13.650;2023-05-14T03:32:37;15.63;;;10.00;;
18917;SDS011;9591;52.742;13.650;2023-05-14T03:35:25;17.40;;;9.17;;
18917;SDS011;9591;52.742;13.650;2023-05-14T03:38:13;16.50;;;8.83;;
18917;SDS011;9591;52.742;13.650;2023-05-14T03:41:04;14.80;;;9.63;;
18917;SDS011;9591;52.742;13.650;2023-05-14T03:43:51;15.17;;;8.67;;
18917;SDS011;9591;52.742;13.650;2023-05-14T03:46:37;13.00;;;8.90;;
18917;SDS011;9591;52.742;13.650;2023-05-14T03:49:24;12.47;;;9.10;;
18917;SDS011;9591;52.742;13.650;2023-05-14T03:52:11;12.23;;;8.50;;
18917;SDS011;9591;52.742;13.650;2023-05-14T03:55:02;14.70;;;9.43;;
18917;SDS011;9591;52.742;13.650;2023-05-14T03:57:49;20.53;;;9.30;;
18917;SDS011;9591;52.742;13.650;2023-05-14T04:00:36;13.30;;;9.23;;
18917;SDS011;9591;52.742;13.650;2023-05-14T04:03:22;13.20;;;9.20;;
18917;SDS011;9591;52.742;13.650;2023-05-14T04:06:09;13.17;;;9.10;;
18917;SDS011;9591;52.742;13.650;2023-05-14T04:08:56;14.57;;;9.07;;
18917;SDS011;9591;52.742;13.650;2023-05-14T04:11:44;16.20;;;9.53;;
18917;SDS011;9591;52.742;13.650;2023-05-14T04:14:31;15.67;;;9.37;;
18917;SDS011;9591;52.742;13.650;2023-05-14T04:17:18;15.63;;;9.53;;
18917;SDS011;9591;52.742;13.650;2023-05-14T04:20:06;16.33;;;9.60;;
18917;SDS011;9591;52.742;13.650;2023-05-14T04:22:53;18.40;;;9.43;;
18917;SDS011;9591;52.742;13.650;2023-05-14T04:25:40;16.30;;;10.03;;
18917;SDS011;9591;52.742;13.650;2023-05-14T04:28:29;13.50;;;9.67;;
18917;SDS011;9591;52.742;13.650;2023-05-14T04:31:17;19.07;;;10.10;;
18917;SDS011;9591;52.742;13.650;2023-05-14T04:34:04;18.27;;;9.53;;
18917;SDS011;9591;52.742;13.650;2023-05-14T04:36:52;14.80;;;9.57;;
18917;SDS011;9591;52.742;13.650;2023-05-14T04:39:40;12.43;;;9.43;;
18917;SDS011;9591;52.742;13.650;2023-05-14T04:42:28;13.27;;;9.90;;
18917;SDS011;9591;52.742;13.650;2023-05-14T04:45:17;16.07;;;9.53;;
18917;SDS011;9591;52.742;13.650;2023-05-14T04:48:06;15.90;;;10.10;;
18917;SDS011;9591;52.742;13.650;2023-05-14T04:50:54;13.60;;;9.27;;
18917;SDS011;9591;52.742;13.650;2023-05-14T04:53:43;18.63;;;10.43;;
18917;SDS011;9591;52.742;13.650;2023-05-14T04:56:31;14.90;;;9.83;;
18917;SDS011;9591;52.742;13.650;2023-05-14T04:59:18;17.93;;;9.97;;
18917;SDS011;9591;52.742;13.650;2023-05-14T05:02:07;14.67;;;9.40;;
18917;SDS011;9591;52.742;13.650;2023-05-14T05:04:54;14.53;;;9.97;;
18917;SDS011;9591;52.742;13.650;2023-05-14T05:07:40;17.97;;;9.43;;
18917;SDS011;9591;52.742;13.650;2023-05-14T05:10:27;11.70;;;9.07;;
18917;SDS011;9591;52.742;13.650;2023-05-14T05:13:14;12.20;;;9.47;;
18917;SDS011;9591;52.742;13.650;2023-05-14T05:16:01;13.57;;;9.00;;
18917;SDS011;9591;52.742;13.650;2023-05-14T05:18:51;13.67;;;9.27;;
18917;SDS011;9591;52.742;13.650;2023-05-14T05:21:39;13.83;;;9.47;;
18917;SDS011;9591;52.742;13.650;2023-05-14T05:24:26;14.43;;;9.23;;
18917;SDS011;9591;52.742;13.650;2023-05-14T05:27:15;18.33;;;9.80;;
18917;SDS011;9591;52.742;13.650;2023-05-14T05:30:02;14.70;;;9.37;;
18917;SDS011;9591;52.742;13.650;2023-05-14T05:32:49;13.40;;;9.73;;
18917;SDS011;9591;52.742;13.650;2023-05-14T05:35:37;14.40;;;10.00;;
18917;SDS011;9591;52.742;13.650;2023-05-14T05:38:24;14.80;;;8.43;;
18917;SDS011;9591;52.742;13.650;2023-05-14T05:45:12;12.47;;;8.13;;
18917;SDS011;9591;52.742;13.650;2023-05-14T05:47:59;12.00;;;7.83;;
18917;SDS011;9591;52.742;13.650;2023-05-14T05:50:48;11.07;;;7.70;;
18917;SDS011;9591;52.742;13.650;2023-05-14T05:53:35;12.70;;;7.90;;
18917;SDS011;9591;52.742;13.650;2023-05-14T05:56:22;13.43;;;7.67;;
18917;SDS011;9591;52.742;13.650;2023-05-14T05:59:09;15.57;;;9.00;;
18917;SDS011;9591;52.742;13.650;2023-05-14T06:10:42;11.93;;;8.63;;
18917;SDS011;9591;52.742;13.650;2023-05-14T06:13:31;10.37;;;7.90;;
18917;SDS011;9591;52.742;13.650;2023-05-14T06:16:18;15.40;;;7.70;;
18917;SDS011;9591;52.742;13.650;2023-05-14T06:19:05;9.90;;;7.57;;
18917;SDS011;9591;52.742;13.650;2023-05-14T06:21:52;12.07;;;7.90;;
18917;SDS011;9591;52.742;13.650;2023-05-14T06:24:39;13.60;;;7.87;;
18917;SDS011;9591;52.742;13.650;2023-05-14T06:27:27;11.80;;;8.00;;
18917;SDS011;9591;52.742;13.650;2023-05-14T06:30:13;13.60;;;8.47;;
18917;SDS011;9591;52.742;13.650;2023-05-14T06:33:01;15.80;;;7.47;;
18917;SDS011;9591;52.742;13.650;2023-05-14T06:35:47;12.73;;;7.63;;
18917;SDS011;9591;52.742;13.650;2023-05-14T06:38:34;9.97;;;6.83;;
18917;SDS011;9591;52.742;13.650;2023-05-14T06:41:21;12.53;;;6.33;;
18917;SDS011;9591;52.742;13.650;2023-05-14T06:44:09;10.73;;;6.23;;
18917;SDS011;9591;52.742;13.650;2023-05-14T06:46:56;11.33;;;5.33;;
18917;SDS011;9591;52.742;13.650;2023-05-14T06:49:43;8.27;;;6.00;;
18917;SDS011;9591;52.742;13.650;2023-05-14T06:52:30;8.23;;;5.73;;
18917;SDS011;9591;52.742;13.650;2023-05-14T06:55:17;13.73;;;6.10;;
18917;SDS011;9591;52.742;13.650;2023-05-14T06:58:04;8.23;;;5.10;;
18917;SDS011;9591;52.742;13.650;2023-05-14T07:00:52;8.10;;;5.63;;
18917;SDS011;9591;52.742;13.650;2023-05-14T07:03:39;8.23;;;5.77;;
18917;SDS011;9591;52.742;13.650;2023-05-14T07:06:26;10.57;;;5.23;;
18917;SDS011;9591;52.742;13.650;2023-05-14T07:09:12;7.70;;;5.10;;
18917;SDS011;9591;52.742;13.650;2023-05-14T07:11:59;8.30;;;4.90;;
18917;SDS011;9591;52.742;13.650;2023-05-14T07:14:46;7.20;;;4.93;;
18917;SDS011;9591;52.742;13.650;2023-05-14T07:17:35;11.63;;;4.97;;
18917;SDS011;9591;52.742;13.650;2023-05-14T07:20:22;10.00;;;4.60;;
18917;SDS011;9591;52.742;13.650;2023-05-14T07:23:09;8.73;;;5.07;;
18917;SDS011;9591;52.742;13.650;2023-05-14T07:25:56;6.40;;;4.67;;
18917;SDS011;9591;52.742;13.650;2023-05-14T07:28:43;9.40;;;5.33;;
18917;SDS011;9591;52.742;13.650;2023-05-14T07:31:30;8.27;;;5.07;;
18917;SDS011;9591;52.742;13.650;2023-05-14T07:34:18;7.30;;;5.40;;
18917;SDS011;9591;52.742;13.650;2023-05-14T07:37:05;7.80;;;5.37;;
18917;SDS011;9591;52.742;13.650;2023-05-14T07:43:38;9.47;;;5.30;;
18917;SDS011;9591;52.742;13.650;2023-05-14T07:46:25;10.63;;;5.30;;
18917;SDS011;9591;52.742;13.650;2023-05-14T07:49:12;14.50;;;5.73;;
18917;SDS011;9591;52.742;13.650;2023-05-14T07:52:00;10.97;;;4.50;;
18917;SDS011;9591;52.742;13.650;2023-05-14T07:54:47;7.50;;;4.73;;
18917;SDS011;9591;52.742;13.650;2023-05-14T07:57:35;9.67;;;4.73;;
18917;SDS011;9591;52.742;13.650;2023-05-14T08:00:22;6.90;;;4.07;;
18917;SDS011;9591;52.742;13.650;2023-05-14T08:03:10;6.53;;;4.90;;
18917;SDS011;9591;52.742;13.650;2023-05-14T08:05:57;11.00;;;4.80;;
18917;SDS011;9591;52.742;13.650;2023-05-14T08:08:45;8.40;;;4.70;;
18917;SDS011;9591;52.742;13.650;2023-05-14T08:11:32;13.63;;;4.53;;
18917;SDS011;9591;52.742;13.650;2023-05-14T08:14:18;6.83;;;4.50;;
18917;SDS011;9591;52.742;13.650;2023-05-14T08:17:06;8.77;;;4.30;;
18917;SDS011;9591;52.742;13.650;2023-05-14T08:19:52;4.87;;;4.03;;
18917;SDS011;9591;52.742;13.650;2023-05-14T08:22:39;5.30;;;3.97;;
18917;SDS011;9591;52.742;13.650;2023-05-14T08:25:27;5.80;;;4.00;;
18917;SDS011;9591;52.742;13.650;2023-05-14T08:28:14;5.47;;;3.77;;
18917;SDS011;9591;52.742;13.650;2023-05-14T08:31:01;8.90;;;3.90;;
18917;SDS011;9591;52.742;13.650;2023-05-14T08:33:48;8.77;;;3.77;;
18917;SDS011;9591;52.742;13.650;2023-05-14T08:36:35;25.93;;;4.77;;
18917;SDS011;9591;52.742;13.650;2023-05-14T08:39:21;10.63;;;4.40;;
18917;SDS011;9591;52.742;13.650;2023-05-14T08:42:11;6.70;;;4.13;;
18917;SDS011;9591;52.742;13.650;2023-05-14T08:44:59;5.83;;;3.93;;
18917;SDS011;9591;52.742;13.650;2023-05-14T08:47:47;5.27;;;3.70;;
18917;SDS011;9591;52.742;13.650;2023-05-14T08:50:35;7.17;;;3.27;;
18917;SDS011;9591;52.742;13.650;2023-05-14T08:53:22;146.63;;;8.13;;
18917;SDS011;9591;52.742;13.650;2023-05-14T08:56:09;4.97;;;3.03;;
18917;SDS011;9591;52.742;13.650;2023-05-14T08:58:58;4.87;;;3.07;;
18917;SDS011;9591;52.742;13.650;2023-05-14T09:01:46;9.33;;;3.03;;
18917;SDS011;9591;52.742;13.650;2023-05-14T09:04:33;6.93;;;3.20;;
18917;SDS011;9591;52.742;13.650;2023-05-14T09:10:36;9.03;;;3.30;;
18917;SDS011;9591;52.742;13.650;2023-05-14T09:13:24;8.10;;;3.63;;
18917;SDS011;9591;52.742;13.650;2023-05-14T09:16:18;11.97;;;3.60;;
18917;SDS011;9591;52.742;13.650;2023-05-14T09:19:08;5.30;;;3.23;;
18917;SDS011;9591;52.742;13.650;2023-05-14T09:22:02;7.10;;;3.50;;
18917;SDS011;9591;52.742;13.650;2023-05-14T09:25:03;4.17;;;3.50;;
18917;SDS011;9591;52.742;13.650;2023-05-14T09:27:51;3.70;;;2.83;;
18917;SDS011;9591;52.742;13.650;2023-05-14T09:30:43;6.57;;;3.50;;
18917;SDS011;9591;52.742;13.650;2023-05-14T09:33:34;4.07;;;3.57;;
18917;SDS011;9591;52.742;13.650;2023-05-14T09:36:21;6.93;;;3.43;;
18917;SDS011;9591;52.742;13.650;2023-05-14T09:39:09;6.00;;;3.03;;
18917;SDS011;9591;52.742;13.650;2023-05-14T09:41:56;6.30;;;3.23;;
18917;SDS011;9591;52.742;13.650;2023-05-14T09:44:42;4.37;;;2.93;;
18917;SDS011;9591;52.742;13.650;2023-05-14T09:47:31;8.07;;;3.17;;
18917;SDS011;9591;52.742;13.650;2023-05-14T09:50:19;4.33;;;3.20;;
18917;SDS011;9591;52.742;13.650;2023-05-14T09:53:07;3.97;;;2.80;;
18917;SDS011;9591;52.742;13.650;2023-05-14T09:55:54;12.63;;;3.57;;
18917;SDS011;9591;52.742;13.650;2023-05-14T09:58:43;5.27;;;3.97;;
18917;SDS011;9591;52.742;13.650;2023-05-14T10:01:30;5.37;;;2.87;;
18917;SDS011;9591;52.742;13.650;2023-05-14T10:04:18;4.63;;;3.57;;
18917;SDS011;9591;52.742;13.650;2023-05-14T10:07:06;8.17;;;3.40;;
18917;SDS011;9591;52.742;13.650;2023-05-14T10:09:56;5.70;;;3.17;;
18917;SDS011;9591;52.742;13.650;2023-05-14T10:12:50;4.97;;;3.10;;
18917;SDS011;9591;52.742;13.650;2023-05-14T10:15:39;8.40;;;3.00;;
18917;SDS011;9591;52.742;13.650;2023-05-14T10:18:30;6.80;;;3.30;;
18917;SDS011;9591;52.742;13.650;2023-05-14T10:24:39;5.33;;;3.53;;
18917;SDS011;9591;52.742;13.650;2023-05-14T10:27:26;5.77;;;3.70;;
18917;SDS011;9591;52.742;13.650;2023-05-14T10:30:14;4.90;;;3.47;;
18917;SDS011;9591;52.742;13.650;2023-05-14T10:33:05;5.27;;;3.30;;
18917;SDS011;9591;52.742;13.650;2023-05-14T10:35:54;8.43;;;3.67;;
18917;SDS011;9591;52.742;13.650;2023-05-14T10:38:43;9.70;;;3.50;;
18917;SDS011;9591;52.742;13.650;2023-05-14T10:41:31;6.73;;;3.53;;
18917;SDS011;9591;52.742;13.650;2023-05-14T10:44:19;5.60;;;3.53;;
18917;SDS011;9591;52.742;13.650;2023-05-14T10:47:06;4.50;;;3.20;;
18917;SDS011;9591;52.742;13.650;2023-05-14T10:49:54;251.20;;;16.10;;
18917;SDS011;9591;52.742;13.650;2023-05-14T10:52:42;3.80;;;3.17;;
18917;SDS011;9591;52.742;13.650;2023-05-14T10:55:30;3.80;;;3.10;;
18917;SDS011;9591;52.742;13.650;2023-05-14T10:58:19;7.40;;;3.30;;
18917;SDS011;9591;52.742;13.650;2023-05-14T11:01:09;6.50;;;3.33;;
18917;SDS011;9591;52.742;13.650;2023-05-14T11:03:57;4.37;;;3.37;;
18917;SDS011;9591;52.742;13.650;2023-05-14T11:06:48;27.57;;;4.00;;
18917;SDS011;9591;52.742;13.650;2023-05-14T11:09:36;121.17;;;10.00;;
18917;SDS011;9591;52.742;13.650;2023-05-14T11:12:24;79.97;;;6.83;;
18917;SDS011;9591;52.742;13.650;2023-05-14T11:15:17;8.47;;;3.83;;
18917;SDS011;9591;52.742;13.650;2023-05-14T11:18:05;7.00;;;3.20;;
18917;SDS011;9591;52.742;13.650;2023-05-14T11:20:57;4.20;;;3.10;;
18917;SDS011;9591;52.742;13.650;2023-05-14T11:23:45;6.00;;;3.60;;
18917;SDS011;9591;52.742;13.650;2023-05-14T11:26:32;6.53;;;3.30;;
18917;SDS011;9591;52.742;13.650;2023-05-14T11:29:19;5.97;;;3.60;;
18917;SDS011;9591;52.742;13.650;2023-05-14T11:32:07;5.70;;;3.00;;
18917;SDS011;9591;52.742;13.650;2023-05-14T11:34:54;5.00;;;3.23;;
18917;SDS011;9591;52.742;13.650;2023-05-14T11:37:41;6.40;;;3.40;;
18917;SDS011;9591;52.742;13.650;2023-05-14T11:40:27;7.23;;;3.20;;
18917;SDS011;9591;52.742;13.650;2023-05-14T11:43:14;4.70;;;3.47;;
18917;SDS011;9591;52.742;13.650;2023-05-14T11:46:01;5.33;;;3.40;;
18917;SDS011;9591;52.742;13.650;2023-05-14T11:48:50;5.23;;;2.60;;
18917;SDS011;9591;52.742;13.650;2023-05-14T11:51:37;4.90;;;3.00;;
18917;SDS011;9591;52.742;13.650;2023-05-14T11:54:24;5.03;;;2.97;;
18917;SDS011;9591;52.742;13.650;2023-05-14T11:57:12;4.50;;;2.90;;
18917;SDS011;9591;52.742;13.650;2023-05-14T12:00:01;8.23;;;3.63;;
18917;SDS011;9591;52.742;13.650;2023-05-14T12:02:49;6.50;;;3.20;;
18917;SDS011;9591;52.742;13.650;2023-05-14T12:05:38;5.70;;;3.23;;
18917;SDS011;9591;52.742;13.650;2023-05-14T12:08:25;4.27;;;2.80;;
18917;SDS011;9591;52.742;13.650;2023-05-14T12:11:13;3.90;;;2.87;;
18917;SDS011;9591;52.742;13.650;2023-05-14T12:13:59;5.03;;;3.13;;
18917;SDS011;9591;52.742;13.650;2023-05-14T12:16:50;8.60;;;3.83;;
18917;SDS011;9591;52.742;13.650;2023-05-14T12:19:38;6.00;;;3.30;;
18917;SDS011;9591;52.742;13.650;2023-05-14T12:22:27;4.80;;;3.33;;
18917;SDS011;9591;52.742;13.650;2023-05-14T12:25:14;7.77;;;3.13;;
18917;SDS011;9591;52.742;13.650;2023-05-14T12:28:01;13.83;;;3.50;;
18917;SDS011;9591;52.742;13.650;2023-05-14T12:31:00;5.13;;;3.30;;
18917;SDS011;9591;52.742;13.650;2023-05-14T12:33:46;4.43;;;3.00;;
18917;SDS011;9591;52.742;13.650;2023-05-14T12:36:33;5.37;;;3.10;;
18917;SDS011;9591;52.742;13.650;2023-05-14T12:39:21;5.33;;;3.67;;
18917;SDS011;9591;52.742;13.650;2023-05-14T12:42:09;7.83;;;3.23;;
18917;SDS011;9591;52.742;13.650;2023-05-14T12:44:55;6.20;;;3.40;;
18917;SDS011;9591;52.742;13.650;2023-05-14T12:47:43;3.80;;;3.20;;
18917;SDS011;9591;52.742;13.650;2023-05-14T12:50:30;33.90;;;4.47;;
18917;SDS011;9591;52.742;13.650;2023-05-14T12:53:17;5.37;;;3.47;;
18917;SDS011;9591;52.742;13.650;2023-05-14T12:56:07;17.30;;;3.80;;
18917;SDS011;9591;52.742;13.650;2023-05-14T12:58:54;4.80;;;3.57;;
18917;SDS011;9591;52.742;13.650;2023-05-14T13:01:41;7.23;;;3.47;;
18917;SDS011;9591;52.742;13.650;2023-05-14T13:04:28;4.07;;;3.10;;
18917;SDS011;9591;52.742;13.650;2023-05-14T13:07:15;5.23;;;3.40;;
18917;SDS011;9591;52.742;13.650;2023-05-14T13:10:02;3.50;;;3.20;;
18917;SDS011;9591;52.742;13.650;2023-05-14T13:12:51;5.20;;;3.30;;
18917;SDS011;9591;52.742;13.650;2023-05-14T13:15:38;6.90;;;3.40;;
18917;SDS011;9591;52.742;13.650;2023-05-14T13:18:25;8.00;;;3.60;;
18917;SDS011;9591;52.742;13.650;2023-05-14T13:21:11;5.83;;;3.30;;
18917;SDS011;9591;52.742;13.650;2023-05-14T13:23:58;5.23;;;3.00;;
18917;SDS011;9591;52.742;13.650;2023-05-14T13:26:45;6.23;;;3.50;;
18917;SDS011;9591;52.742;13.650;2023-05-14T13:29:34;3.67;;;3.00;;
18917;SDS011;9591;52.742;13.650;2023-05-14T13:32:21;5.83;;;2.97;;
18917;SDS011;9591;52.742;13.650;2023-05-14T13:35:08;3.97;;;3.03;;
18917;SDS011;9591;52.742;13.650;2023-05-14T13:37:55;5.37;;;3.10;;
18917;SDS011;9591;52.742;13.650;2023-05-14T13:40:44;5.27;;;3.10;;
18917;SDS011;9591;52.742;13.650;2023-05-14T13:43:31;3.50;;;3.10;;
18917;SDS011;9591;52.742;13.650;2023-05-14T13:46:22;4.70;;;3.20;;
18917;SDS011;9591;52.742;13.650;2023-05-14T13:49:09;3.33;;;2.80;;
18917;SDS011;9591;52.742;13.650;2023-05-14T13:51:58;8.63;;;3.27;;
18917;SDS011;9591;52.742;13.650;2023-05-14T13:54:45;6.13;;;3.40;;
18917;SDS011;9591;52.742;13.650;2023-05-14T13:57:32;5.40;;;3.93;;
18917;SDS011;9591;52.742;13.650;2023-05-14T14:00:19;7.77;;;3.53;;
18917;SDS011;9591;52.742;13.650;2023-05-14T14:03:08;8.80;;;3.27;;
18917;SDS011;9591;52.742;13.650;2023-05-14T14:05:54;3.90;;;3.50;;
18917;SDS011;9591;52.742;13.650;2023-05-14T14:08:41;5.63;;;3.40;;
18917;SDS011;9591;52.742;13.650;2023-05-14T14:11:28;15.17;;;5.10;;
18917;SDS011;9591;52.742;13.650;2023-05-14T14:14:15;19.23;;;4.73;;
18917;SDS011;9591;52.742;13.650;2023-05-14T14:17:02;6.50;;;3.23;;
18917;SDS011;9591;52.742;13.650;2023-05-14T14:19:51;8.50;;;3.47;;
18917;SDS011;9591;52.742;13.650;2023-05-14T14:22:38;47.23;;;6.40;;
18917;SDS011;9591;52.742;13.650;2023-05-14T14:25:25;7.37;;;4.00;;
18917;SDS011;9591;52.742;13.650;2023-05-14T14:28:12;9.30;;;4.93;;
18917;SDS011;9591;52.742;13.650;2023-05-14T14:30:58;7.27;;;3.97;;
18917;SDS011;9591;52.742;13.650;2023-05-14T14:33:45;754.97;;;36.03;;
18917;SDS011;9591;52.742;13.650;2023-05-14T14:36:34;60.77;;;6.63;;
18917;SDS011;9591;52.742;13.650;2023-05-14T14:39:20;18.07;;;4.70;;
18917;SDS011;9591;52.742;13.650;2023-05-14T14:42:09;6.20;;;4.13;;
18917;SDS011;9591;52.742;13.650;2023-05-14T14:44:56;63.47;;;5.70;;
18917;SDS011;9591;52.742;13.650;2023-05-14T14:47:43;17.73;;;4.40;;
18917;SDS011;9591;52.742;13.650;2023-05-14T14:50:34;25.97;;;4.60;;
18917;SDS011;9591;52.742;13.650;2023-05-14T14:53:22;4.20;;;3.80;;
18917;SDS011;9591;52.742;13.650;2023-05-14T14:56:09;4.20;;;3.60;;
18917;SDS011;9591;52.742;13.650;2023-05-14T14:58:59;9.87;;;3.60;;
18917;SDS011;9591;52.742;13.650;2023-05-14T15:01:46;8.17;;;4.10;;
18917;SDS011;9591;52.742;13.650;2023-05-14T15:04:36;6.20;;;3.90;;
18917;SDS011;9591;52.742;13.650;2023-05-14T15:07:23;6.33;;;3.90;;
18917;SDS011;9591;52.742;13.650;2023-05-14T15:10:11;9.50;;;3.67;;
18917;SDS011;9591;52.742;13.650;2023-05-14T15:12:58;6.17;;;3.63;;
18917;SDS011;9591;52.742;13.650;2023-05-14T15:15:45;5.63;;;3.80;;
18917;SDS011;9591;52.742;13.650;2023-05-14T15:18:34;6.23;;;4.27;;
18917;SDS011;9591;52.742;13.650;2023-05-14T15:21:23;8.17;;;3.87;;
18917;SDS011;9591;52.742;13.650;2023-05-14T15:24:10;11.80;;;4.20;;
18917;SDS011;9591;52.742;13.650;2023-05-14T15:26:59;35.30;;;5.60;;
18917;SDS011;9591;52.742;13.650;2023-05-14T15:29:46;13.30;;;3.77;;
18917;SDS011;9591;52.742;13.650;2023-05-14T15:32:33;8.67;;;4.00;;
18917;SDS011;9591;52.742;13.650;2023-05-14T15:40:11;12.43;;;3.97;;
18917;SDS011;9591;52.742;13.650;2023-05-14T15:42:59;8.27;;;4.00;;
18917;SDS011;9591;52.742;13.650;2023-05-14T15:45:47;3.77;;;3.27;;
18917;SDS011;9591;52.742;13.650;2023-05-14T15:48:34;12.70;;;3.77;;
18917;SDS011;9591;52.742;13.650;2023-05-14T15:51:21;4.80;;;3.30;;
18917;SDS011;9591;52.742;13.650;2023-05-14T15:54:08;15.70;;;3.80;;
18917;SDS011;9591;52.742;13.650;2023-05-14T15:56:55;7.23;;;3.30;;
18917;SDS011;9591;52.742;13.650;2023-05-14T15:59:43;8.60;;;3.43;;
18917;SDS011;9591;52.742;13.650;2023-05-14T16:02:30;37.93;;;5.03;;
18917;SDS011;9591;52.742;13.650;2023-05-14T16:05:17;5.40;;;3.40;;
18917;SDS011;9591;52.742;13.650;2023-05-14T16:08:04;4.43;;;3.00;;
18917;SDS011;9591;52.742;13.650;2023-05-14T16:10:51;5.07;;;3.50;;
18917;SDS011;9591;52.742;13.650;2023-05-14T16:13:38;7.03;;;3.73;;
18917;SDS011;9591;52.742;13.650;2023-05-14T16:16:27;6.13;;;3.30;;
18917;SDS011;9591;52.742;13.650;2023-05-14T16:19:14;9.00;;;3.23;;
18917;SDS011;9591;52.742;13.650;2023-05-14T16:22:01;15.47;;;5.00;;
18917;SDS011;9591;52.742;13.650;2023-05-14T16:24:48;4.07;;;3.67;;
18917;SDS011;9591;52.742;13.650;2023-05-14T16:27:35;8.83;;;3.93;;
18917;SDS011;9591;52.742;13.650;2023-05-14T16:30:22;8.07;;;3.70;;
18917;SDS011;9591;52.742;13.650;2023-05-14T16:37:12;7.50;;;3.40;;
18917;SDS011;9591;52.742;13.650;2023-05-14T16:39:59;3.73;;;3.30;;
18917;SDS011;9591;52.742;13.650;2023-05-14T16:42:48;7.63;;;3.53;;
18917;SDS011;9591;52.742;13.650;2023-05-14T16:45:35;5.20;;;3.10;;
18917;SDS011;9591;52.742;13.650;2023-05-14T16:48:24;9.40;;;4.20;;
18917;SDS011;9591;52.742;13.650;2023-05-14T16:51:12;7.27;;;3.87;;
18917;SDS011;9591;52.742;13.650;2023-05-14T16:54:06;56.30;;;6.70;;
18917;SDS011;9591;52.742;13.650;2023-05-14T16:56:55;28.13;;;4.53;;
18917;SDS011;9591;52.742;13.650;2023-05-14T16:59:44;190.30;;;11.03;;
18917;SDS011;9591;52.742;13.650;2023-05-14T17:06:08;8.67;;;3.87;;
18917;SDS011;9591;52.742;13.650;2023-05-14T17:08:55;28.20;;;4.63;;
18917;SDS011;9591;52.742;13.650;2023-05-14T17:11:44;11.37;;;3.90;;
18917;SDS011;9591;52.742;13.650;2023-05-14T17:14:30;13.27;;;4.37;;
18917;SDS011;9591;52.742;13.650;2023-05-14T17:17:17;13.33;;;3.90;;
18917;SDS011;9591;52.742;13.650;2023-05-14T17:20:04;12.00;;;3.87;;